This is the latest recevied weather packets stored in our database for station/object KE0QIB. If no packets are shown the sender has not sent any weather packets the latest 10 day(s).
| Time | Temp. | Humidity | Pressure | Rain* | Wind** | Luminosity | Snow |
|---|---|---|---|---|---|---|---|
| 1777499830 | 12.22° C | 44% | 1002.6 hPa | 0 mm | - | - | - |
| 1777499530 | 12.22° C | 44% | 1002.7 hPa | 0 mm | - | - | - |
| 1777499230 | 12.22° C | 44% | 1002.7 hPa | 0 mm | - | - | - |
| 1777498930 | 11.67° C | 46% | 1002.7 hPa | 0 mm | - | - | - |
| 1777498630 | 11.67° C | 46% | 1003.1 hPa | 0 mm | - | - | - |
| 1777498330 | 11.67° C | 45% | 1003.1 hPa | 0 mm | - | - | - |
| 1777498030 | 11.11° C | 47% | 1003.1 hPa | 0 mm | - | - | - |
| 1777497730 | 10.56° C | 48% | 1004 hPa | 0 mm | - | - | - |
| 1777497430 | 10° C | 50% | 1004 hPa | 0 mm | - | - | - |
| 1777497130 | 10° C | 51% | 1004 hPa | 0 mm | - | - | - |
| 1777496830 | 10° C | 51% | 1003.8 hPa | 0 mm | - | - | - |
| 1777496530 | 10° C | 49% | 1003.8 hPa | 0 mm | - | - | - |
| 1777496230 | 10° C | 48% | 1003.8 hPa | 0 mm | - | - | - |
| 1777495930 | 10.56° C | 47% | 1003.6 hPa | 0 mm | - | - | - |
| 1777495630 | 11.11° C | 46% | 1003.6 hPa | 0 mm | - | - | - |
| 1777495330 | 11.11° C | 48% | 1003.6 hPa | 0 mm | - | - | - |
| 1777495030 | 10.56° C | 53% | 1003.6 hPa | 0 mm | - | - | - |
| 1777494730 | 10.56° C | 55% | 1003.6 hPa | 0 mm | - | - | - |
| 1777494430 | 10.56° C | 56% | 1003.6 hPa | 0 mm | - | - | - |
| 1777494130 | 10.56° C | 60% | 1004.7 hPa | 0 mm | - | - | - |
| 1777493830 | 10.56° C | 58% | 1004.7 hPa | 0 mm | - | - | - |
| 1777493530 | 10.56° C | 60% | 1004.7 hPa | 0 mm | - | - | - |
| 1777493230 | 11.11° C | 52% | 1003.7 hPa | 0 mm | - | - | - |
| 1777492930 | 11.67° C | 48% | 1003.7 hPa | 0 mm | - | - | - |
| 1777492630 | 11.67° C | 44% | 1003.7 hPa | 0 mm | - | - | - |
* Rain latest hour (hover to see other rain measurements)
** Current wind speed in m/s (hover to see current wind gust speed)